Terminal Aerodrome Forecast
Issued by NWS

Home | Current Version | Previous Version | Text Only | Print | Product List | Glossary On
Versions: 1 2 3 4 5 6 7 8 9 10 11 12 13 14 15 16 17 18
000
FTUS46 KSEW 230804 AAA
TAFOLM
TAF AMD
KOLM 230804Z 2308/2406 33003KT P6SM SCT030 SCT040 BKN060
     FM231000 VRB03KT 2SM BR BKN008
      TEMPO 2313/2317 1/2SM FZFG VV002
     FM231800 VRB03KT P6SM SCT015
     FM232100 26003KT P6SM SCT030=

USA.gov is the U.S. government's official web portal to all federal, state and local government web resources and services.